sensor_id;sensor_type;location;lat;lon;timestamp;pressure;altitude;pressure_sealevel;temperature;humidity
5574;BME280;2563;52.242;7.956;2023-05-20T00:02:00;101649.53;;;12.53;100.00
5574;BME280;2563;52.242;7.956;2023-05-20T00:04:26;101653.91;;;12.48;100.00
5574;BME280;2563;52.242;7.956;2023-05-20T00:06:51;101654.09;;;12.36;100.00
5574;BME280;2563;52.242;7.956;2023-05-20T00:09:17;101656.69;;;12.33;100.00
5574;BME280;2563;52.242;7.956;2023-05-20T00:11:42;101658.53;;;12.26;100.00
5574;BME280;2563;52.242;7.956;2023-05-20T00:14:08;101660.28;;;12.23;100.00
5574;BME280;2563;52.242;7.956;2023-05-20T00:16:33;101657.81;;;12.17;100.00
5574;BME280;2563;52.242;7.956;2023-05-20T00:18:59;101664.66;;;12.16;100.00
5574;BME280;2563;52.242;7.956;2023-05-20T00:21:24;101663.03;;;12.10;100.00
5574;BME280;2563;52.242;7.956;2023-05-20T00:23:50;101661.44;;;12.00;100.00
5574;BME280;2563;52.242;7.956;2023-05-20T00:26:16;101671.91;;;11.88;100.00
5574;BME280;2563;52.242;7.956;2023-05-20T00:28:41;101671.94;;;11.82;100.00
5574;BME280;2563;52.242;7.956;2023-05-20T00:31:06;101670.19;;;11.84;100.00
5574;BME280;2563;52.242;7.956;2023-05-20T00:33:32;101679.69;;;11.80;100.00
5574;BME280;2563;52.242;7.956;2023-05-20T00:35:57;101675.47;;;11.73;100.00
5574;BME280;2563;52.242;7.956;2023-05-20T00:38:22;101680.78;;;11.59;100.00
5574;BME280;2563;52.242;7.956;2023-05-20T00:40:48;101672.25;;;11.51;100.00
5574;BME280;2563;52.242;7.956;2023-05-20T00:43:13;101684.34;;;11.46;100.00
5574;BME280;2563;52.242;7.956;2023-05-20T00:45:39;101680.13;;;11.39;100.00
5574;BME280;2563;52.242;7.956;2023-05-20T00:48:05;101693.88;;;11.36;100.00
5574;BME280;2563;52.242;7.956;2023-05-20T00:50:30;101704.25;;;11.32;100.00
5574;BME280;2563;52.242;7.956;2023-05-20T00:52:56;101737.81;;;11.25;100.00
5574;BME280;2563;52.242;7.956;2023-05-20T00:55:23;101734.38;;;11.20;100.00
5574;BME280;2563;52.242;7.956;2023-05-20T00:57:49;101731.88;;;11.14;100.00
5574;BME280;2563;52.242;7.956;2023-05-20T01:00:14;101723.34;;;11.07;100.00
5574;BME280;2563;52.242;7.956;2023-05-20T01:02:40;101728.56;;;11.01;100.00
5574;BME280;2563;52.242;7.956;2023-05-20T01:05:06;101724.25;;;10.99;100.00
5574;BME280;2563;52.242;7.956;2023-05-20T01:07:32;101724.25;;;11.02;100.00
5574;BME280;2563;52.242;7.956;2023-05-20T01:09:57;101733.69;;;11.01;100.00
5574;BME280;2563;52.242;7.956;2023-05-20T01:12:30;101739.69;;;10.99;100.00
5574;BME280;2563;52.242;7.956;2023-05-20T01:15:10;101746.69;;;10.83;100.00
5574;BME280;2563;52.242;7.956;2023-05-20T01:17:45;101733.84;;;10.77;100.00
5574;BME280;2563;52.242;7.956;2023-05-20T01:20:12;101766.47;;;10.70;100.00
5574;BME280;2563;52.242;7.956;2023-05-20T01:22:46;101764.75;;;10.80;100.00
5574;BME280;2563;52.242;7.956;2023-05-20T01:25:11;101750.88;;;10.99;100.00
5574;BME280;2563;52.242;7.956;2023-05-20T01:27:37;101730.31;;;10.92;100.00
5574;BME280;2563;52.242;7.956;2023-05-20T01:30:02;101722.66;;;10.79;100.00
5574;BME280;2563;52.242;7.956;2023-05-20T01:32:33;101693.50;;;10.74;100.00
5574;BME280;2563;52.242;7.956;2023-05-20T01:35:01;101690.97;;;10.70;100.00
5574;BME280;2563;52.242;7.956;2023-05-20T01:37:28;101685.00;;;10.60;100.00
5574;BME280;2563;52.242;7.956;2023-05-20T01:39:54;101677.31;;;10.57;100.00
5574;BME280;2563;52.242;7.956;2023-05-20T01:42:21;101674.75;;;10.57;100.00
5574;BME280;2563;52.242;7.956;2023-05-20T01:44:47;101677.38;;;10.48;100.00
5574;BME280;2563;52.242;7.956;2023-05-20T01:47:12;101683.38;;;10.43;100.00
5574;BME280;2563;52.242;7.956;2023-05-20T01:49:38;101697.16;;;10.39;100.00
5574;BME280;2563;52.242;7.956;2023-05-20T01:52:04;101698.91;;;10.34;100.00
5574;BME280;2563;52.242;7.956;2023-05-20T01:54:30;101683.47;;;10.28;100.00
5574;BME280;2563;52.242;7.956;2023-05-20T01:56:55;101668.03;;;10.28;100.00
5574;BME280;2563;52.242;7.956;2023-05-20T01:59:20;101661.16;;;10.27;100.00
5574;BME280;2563;52.242;7.956;2023-05-20T02:01:46;101657.78;;;10.16;100.00
5574;BME280;2563;52.242;7.956;2023-05-20T02:04:11;101651.78;;;10.09;100.00
5574;BME280;2563;52.242;7.956;2023-05-20T02:06:37;101651.78;;;10.08;100.00
5574;BME280;2563;52.242;7.956;2023-05-20T02:09:02;101651.84;;;9.98;100.00
5574;BME280;2563;52.242;7.956;2023-05-20T02:11:28;101656.13;;;9.96;100.00
5574;BME280;2563;52.242;7.956;2023-05-20T02:13:53;101652.72;;;9.94;100.00
5574;BME280;2563;52.242;7.956;2023-05-20T02:16:18;101658.72;;;9.92;100.00
5574;BME280;2563;52.242;7.956;2023-05-20T02:18:44;101655.31;;;9.85;100.00
5574;BME280;2563;52.242;7.956;2023-05-20T02:21:09;101651.91;;;9.80;100.00
5574;BME280;2563;52.242;7.956;2023-05-20T02:23:35;101645.91;;;9.76;100.00
5574;BME280;2563;52.242;7.956;2023-05-20T02:26:00;101641.66;;;9.68;100.00
5574;BME280;2563;52.242;7.956;2023-05-20T02:28:26;101645.09;;;9.62;100.00
5574;BME280;2563;52.242;7.956;2023-05-20T02:30:51;101638.25;;;9.56;100.00
5574;BME280;2563;52.242;7.956;2023-05-20T02:33:20;101633.13;;;9.50;100.00
5574;BME280;2563;52.242;7.956;2023-05-20T02:35:45;101639.13;;;9.51;100.00
5574;BME280;2563;52.242;7.956;2023-05-20T02:38:11;101636.59;;;9.42;100.00
5574;BME280;2563;52.242;7.956;2023-05-20T02:40:37;101633.16;;;9.35;100.00
5574;BME280;2563;52.242;7.956;2023-05-20T02:43:02;101627.16;;;9.33;100.00
5574;BME280;2563;52.242;7.956;2023-05-20T02:45:28;101621.19;;;9.29;100.00
5574;BME280;2563;52.242;7.956;2023-05-20T02:47:53;101615.19;;;9.26;100.00
5574;BME280;2563;52.242;7.956;2023-05-20T02:50:18;101610.91;;;9.31;100.00
5574;BME280;2563;52.242;7.956;2023-05-20T02:52:44;101601.47;;;9.24;100.00
5574;BME280;2563;52.242;7.956;2023-05-20T02:55:09;101610.03;;;9.26;100.00
5574;BME280;2563;52.242;7.956;2023-05-20T02:57:35;101610.91;;;9.31;100.00
5574;BME280;2563;52.242;7.956;2023-05-20T03:00:11;101615.19;;;9.32;100.00
5574;BME280;2563;52.242;7.956;2023-05-20T03:02:40;101616.88;;;9.37;100.00
5574;BME280;2563;52.242;7.956;2023-05-20T03:05:06;101606.63;;;9.30;100.00
5574;BME280;2563;52.242;7.956;2023-05-20T03:07:33;101601.47;;;9.36;100.00
5574;BME280;2563;52.242;7.956;2023-05-20T03:10:00;101586.91;;;9.40;100.00
5574;BME280;2563;52.242;7.956;2023-05-20T03:12:27;101564.56;;;9.60;100.00
5574;BME280;2563;52.242;7.956;2023-05-20T03:14:52;101543.09;;;9.69;100.00
5574;BME280;2563;52.242;7.956;2023-05-20T03:17:20;101522.50;;;9.75;100.00
5574;BME280;2563;52.242;7.956;2023-05-20T03:19:45;101503.59;;;9.85;100.00
5574;BME280;2563;52.242;7.956;2023-05-20T03:22:11;101488.97;;;9.89;100.00
5574;BME280;2563;52.242;7.956;2023-05-20T03:24:36;101477.84;;;9.88;100.00
5574;BME280;2563;52.242;7.956;2023-05-20T03:27:02;101472.66;;;9.97;100.00
5574;BME280;2563;52.242;7.956;2023-05-20T03:29:28;101467.56;;;9.91;100.00
5574;BME280;2563;52.242;7.956;2023-05-20T03:31:53;101460.66;;;9.93;100.00
5574;BME280;2563;52.242;7.956;2023-05-20T03:34:18;101461.53;;;9.97;100.00
5574;BME280;2563;52.242;7.956;2023-05-20T03:36:44;101449.47;;;10.04;100.00
5574;BME280;2563;52.242;7.956;2023-05-20T03:39:10;101433.97;;;10.11;100.00
5574;BME280;2563;52.242;7.956;2023-05-20T03:41:35;101427.97;;;10.08;100.00
5574;BME280;2563;52.242;7.956;2023-05-20T03:44:02;101409.97;;;10.09;100.00
5574;BME280;2563;52.242;7.956;2023-05-20T03:46:27;101411.66;;;10.10;100.00
5574;BME280;2563;52.242;7.956;2023-05-20T03:48:52;101421.06;;;10.16;100.00
5574;BME280;2563;52.242;7.956;2023-05-20T03:51:18;101401.34;;;10.16;100.00
5574;BME280;2563;52.242;7.956;2023-05-20T03:53:43;101399.63;;;10.17;100.00
5574;BME280;2563;52.242;7.956;2023-05-20T03:56:08;101385.88;;;10.21;100.00
5574;BME280;2563;52.242;7.956;2023-05-20T03:58:34;101377.25;;;10.23;100.00
5574;BME280;2563;52.242;7.956;2023-05-20T04:01:02;101374.69;;;10.28;100.00
5574;BME280;2563;52.242;7.956;2023-05-20T04:03:28;101381.50;;;10.32;100.00
5574;BME280;2563;52.242;7.956;2023-05-20T04:05:54;101367.75;;;10.33;100.00
5574;BME280;2563;52.242;7.956;2023-05-20T04:08:19;101378.81;;;10.43;100.00
5574;BME280;2563;52.242;7.956;2023-05-20T04:10:46;101390.75;;;10.52;100.00
5574;BME280;2563;52.242;7.956;2023-05-20T04:13:11;101378.72;;;10.54;100.00
5574;BME280;2563;52.242;7.956;2023-05-20T04:15:37;101376.16;;;11.20;100.00
5574;BME280;2563;52.242;7.956;2023-05-20T04:18:03;101360.88;;;11.68;100.00
5574;BME280;2563;52.242;7.956;2023-05-20T04:20:30;101374.63;;;11.67;100.00
5574;BME280;2563;52.242;7.956;2023-05-20T04:22:55;101380.88;;;12.08;100.00
5574;BME280;2563;52.242;7.956;2023-05-20T04:25:21;101385.97;;;12.13;100.00
5574;BME280;2563;52.242;7.956;2023-05-20T04:27:46;101398.91;;;12.11;100.00
5574;BME280;2563;52.242;7.956;2023-05-20T04:30:12;101395.66;;;12.50;100.00
5574;BME280;2563;52.242;7.956;2023-05-20T04:32:38;101398.09;;;12.09;100.00
5574;BME280;2563;52.242;7.956;2023-05-20T04:35:04;101414.94;;;11.76;100.00
5574;BME280;2563;52.242;7.956;2023-05-20T04:37:33;101419.94;;;11.85;100.00
5574;BME280;2563;52.242;7.956;2023-05-20T04:39:59;101417.13;;;12.02;100.00
5574;BME280;2563;52.242;7.956;2023-05-20T04:42:27;101429.44;;;11.82;100.00
5574;BME280;2563;52.242;7.956;2023-05-20T04:44:54;101443.38;;;11.70;100.00
5574;BME280;2563;52.242;7.956;2023-05-20T04:47:19;101444.28;;;11.67;100.00
5574;BME280;2563;52.242;7.956;2023-05-20T04:49:44;101442.66;;;11.62;100.00
5574;BME280;2563;52.242;7.956;2023-05-20T04:52:10;101450.44;;;11.57;100.00
5574;BME280;2563;52.242;7.956;2023-05-20T04:54:35;101457.28;;;11.61;100.00
5574;BME280;2563;52.242;7.956;2023-05-20T04:57:01;101458.19;;;11.56;100.00
5574;BME280;2563;52.242;7.956;2023-05-20T04:59:27;101478.75;;;11.62;100.00
5574;BME280;2563;52.242;7.956;2023-05-20T05:01:52;101470.13;;;11.64;100.00
5574;BME280;2563;52.242;7.956;2023-05-20T05:04:17;101473.63;;;11.59;100.00
5574;BME280;2563;52.242;7.956;2023-05-20T05:06:43;101471.91;;;11.58;100.00
5574;BME280;2563;52.242;7.956;2023-05-20T05:09:08;101471.91;;;11.58;100.00
5574;BME280;2563;52.242;7.956;2023-05-20T05:11:34;101477.00;;;11.64;100.00
5574;BME280;2563;52.242;7.956;2023-05-20T05:13:59;101479.44;;;11.73;100.00
5574;BME280;2563;52.242;7.956;2023-05-20T05:16:25;101483.56;;;11.88;100.00
5574;BME280;2563;52.242;7.956;2023-05-20T05:18:50;101479.19;;;11.93;100.00
5574;BME280;2563;52.242;7.956;2023-05-20T05:21:16;101495.91;;;12.25;100.00
5574;BME280;2563;52.242;7.956;2023-05-20T05:23:41;101490.47;;;12.40;100.00
5574;BME280;2563;52.242;7.956;2023-05-20T05:26:07;101483.09;;;12.70;100.00
5574;BME280;2563;52.242;7.956;2023-05-20T05:28:32;101473.53;;;12.73;100.00
5574;BME280;2563;52.242;7.956;2023-05-20T05:30:58;101490.16;;;13.07;100.00
5574;BME280;2563;52.242;7.956;2023-05-20T05:33:23;101483.78;;;13.25;100.00
5574;BME280;2563;52.242;7.956;2023-05-20T05:35:49;101482.56;;;13.43;100.00
5574;BME280;2563;52.242;7.956;2023-05-20T05:38:15;101471.06;;;13.95;100.00
5574;BME280;2563;52.242;7.956;2023-05-20T05:40:41;101460.63;;;13.98;100.00
5574;BME280;2563;52.242;7.956;2023-05-20T05:43:06;101472.31;;;13.78;100.00
5574;BME280;2563;52.242;7.956;2023-05-20T05:45:32;101485.13;;;14.20;100.00
5574;BME280;2563;52.242;7.956;2023-05-20T05:47:57;101479.13;;;14.18;100.00
5574;BME280;2563;52.242;7.956;2023-05-20T05:50:23;101484.75;;;14.00;100.00
5574;BME280;2563;52.242;7.956;2023-05-20T05:52:48;101503.41;;;14.14;100.00
5574;BME280;2563;52.242;7.956;2023-05-20T05:55:13;101507.19;;;14.37;100.00
5574;BME280;2563;52.242;7.956;2023-05-20T05:57:39;101492.50;;;14.37;100.00
5574;BME280;2563;52.242;7.956;2023-05-20T06:00:05;101502.25;;;14.26;100.00
5574;BME280;2563;52.242;7.956;2023-05-20T06:02:30;101505.34;;;14.76;100.00
5574;BME280;2563;52.242;7.956;2023-05-20T06:05:03;101506.88;;;14.83;100.00
5574;BME280;2563;52.242;7.956;2023-05-20T06:07:29;101515.34;;;14.90;100.00
5574;BME280;2563;52.242;7.956;2023-05-20T06:09:54;101516.88;;;14.97;100.00
5574;BME280;2563;52.242;7.956;2023-05-20T06:12:20;101526.41;;;14.97;100.00
5574;BME280;2563;52.242;7.956;2023-05-20T06:14:46;101517.56;;;14.71;100.00
5574;BME280;2563;52.242;7.956;2023-05-20T06:17:12;101531.72;;;14.58;100.00
5574;BME280;2563;52.242;7.956;2023-05-20T06:19:37;101531.91;;;15.17;100.00
5574;BME280;2563;52.242;7.956;2023-05-20T06:22:02;101516.31;;;14.86;100.00
5574;BME280;2563;52.242;7.956;2023-05-20T06:24:28;101531.38;;;15.04;100.00
5574;BME280;2563;52.242;7.956;2023-05-20T06:26:53;101527.50;;;15.21;100.00
5574;BME280;2563;52.242;7.956;2023-05-20T06:29:19;101523.38;;;15.14;100.00
5574;BME280;2563;52.242;7.956;2023-05-20T06:31:45;101530.69;;;14.98;100.00
5574;BME280;2563;52.242;7.956;2023-05-20T06:34:10;101531.47;;;15.62;100.00
5574;BME280;2563;52.242;7.956;2023-05-20T06:36:35;101522.31;;;15.21;100.00
5574;BME280;2563;52.242;7.956;2023-05-20T06:39:01;101516.94;;;15.27;100.00
5574;BME280;2563;52.242;7.956;2023-05-20T06:41:26;101533.75;;;15.43;100.00
5574;BME280;2563;52.242;7.956;2023-05-20T06:43:52;101522.94;;;14.96;100.00
5574;BME280;2563;52.242;7.956;2023-05-20T06:46:17;101530.19;;;14.85;100.00
5574;BME280;2563;52.242;7.956;2023-05-20T06:48:42;101531.19;;;15.10;100.00
5574;BME280;2563;52.242;7.956;2023-05-20T06:51:08;101514.13;;;15.03;100.00
5574;BME280;2563;52.242;7.956;2023-05-20T06:53:34;101517.13;;;15.21;100.00
5574;BME280;2563;52.242;7.956;2023-05-20T06:55:59;101517.81;;;15.56;100.00
5574;BME280;2563;52.242;7.956;2023-05-20T06:58:25;101507.06;;;16.26;100.00
5574;BME280;2563;52.242;7.956;2023-05-20T07:00:50;101505.97;;;15.78;100.00
5574;BME280;2563;52.242;7.956;2023-05-20T07:03:16;101500.50;;;16.14;100.00
5574;BME280;2563;52.242;7.956;2023-05-20T07:05:41;101504.09;;;16.10;100.00
5574;BME280;2563;52.242;7.956;2023-05-20T07:08:07;101497.09;;;16.64;100.00
5574;BME280;2563;52.242;7.956;2023-05-20T07:10:32;101500.34;;;16.45;100.00
5574;BME280;2563;52.242;7.956;2023-05-20T07:12:58;101496.22;;;17.15;100.00
5574;BME280;2563;52.242;7.956;2023-05-20T07:15:24;101492.00;;;16.87;100.00
5574;BME280;2563;52.242;7.956;2023-05-20T07:17:49;101486.88;;;16.86;100.00
5574;BME280;2563;52.242;7.956;2023-05-20T07:20:14;101503.00;;;16.44;100.00
5574;BME280;2563;52.242;7.956;2023-05-20T07:22:40;101491.66;;;16.71;100.00
5574;BME280;2563;52.242;7.956;2023-05-20T07:25:06;101481.28;;;17.65;100.00
5574;BME280;2563;52.242;7.956;2023-05-20T07:27:31;101478.44;;;17.26;100.00
5574;BME280;2563;52.242;7.956;2023-05-20T07:29:57;101484.47;;;16.79;100.00
5574;BME280;2563;52.242;7.956;2023-05-20T07:32:22;101486.97;;;17.06;100.00
5574;BME280;2563;52.242;7.956;2023-05-20T07:34:47;101474.66;;;17.35;100.00
5574;BME280;2563;52.242;7.956;2023-05-20T07:37:13;101461.47;;;17.85;100.00
5574;BME280;2563;52.242;7.956;2023-05-20T07:39:39;101464.69;;;17.46;100.00
5574;BME280;2563;52.242;7.956;2023-05-20T07:42:04;101465.72;;;17.18;100.00
5574;BME280;2563;52.242;7.956;2023-05-20T07:44:30;101472.56;;;17.67;100.00
5574;BME280;2563;52.242;7.956;2023-05-20T07:46:55;101464.81;;;17.43;100.00
5574;BME280;2563;52.242;7.956;2023-05-20T07:49:20;101449.66;;;18.19;100.00
5574;BME280;2563;52.242;7.956;2023-05-20T07:51:46;101454.59;;;18.04;100.00
5574;BME280;2563;52.242;7.956;2023-05-20T07:54:11;101430.53;;;18.20;100.00
5574;BME280;2563;52.242;7.956;2023-05-20T07:56:37;101459.66;;;17.87;100.00
5574;BME280;2563;52.242;7.956;2023-05-20T07:59:02;101435.97;;;18.14;100.00
5574;BME280;2563;52.242;7.956;2023-05-20T08:01:28;101456.16;;;18.09;100.00
5574;BME280;2563;52.242;7.956;2023-05-20T08:03:54;101455.53;;;17.81;100.00
5574;BME280;2563;52.242;7.956;2023-05-20T08:06:20;101445.44;;;18.16;100.00
5574;BME280;2563;52.242;7.956;2023-05-20T08:08:46;101440.03;;;18.82;100.00
5574;BME280;2563;52.242;7.956;2023-05-20T08:11:12;101424.81;;;18.92;100.00
5574;BME280;2563;52.242;7.956;2023-05-20T08:13:38;101436.03;;;18.74;100.00
5574;BME280;2563;52.242;7.956;2023-05-20T08:16:04;101425.50;;;18.96;100.00
5574;BME280;2563;52.242;7.956;2023-05-20T08:18:30;101429.59;;;18.82;100.00
5574;BME280;2563;52.242;7.956;2023-05-20T08:20:57;101423.25;;;19.45;100.00
5574;BME280;2563;52.242;7.956;2023-05-20T08:23:23;101411.31;;;19.39;100.00
5574;BME280;2563;52.242;7.956;2023-05-20T08:25:48;101418.19;;;19.23;100.00
5574;BME280;2563;52.242;7.956;2023-05-20T08:28:13;101425.94;;;19.24;100.00
5574;BME280;2563;52.242;7.956;2023-05-20T08:30:39;101427.16;;;18.57;100.00
5574;BME280;2563;52.242;7.956;2023-05-20T08:33:05;101435.94;;;19.15;100.00
5574;BME280;2563;52.242;7.956;2023-05-20T08:35:31;101441.09;;;19.16;100.00
5574;BME280;2563;52.242;7.956;2023-05-20T08:37:56;101442.38;;;19.26;100.00
5574;BME280;2563;52.242;7.956;2023-05-20T08:40:22;101446.81;;;19.24;100.00
5574;BME280;2563;52.242;7.956;2023-05-20T08:42:49;101444.13;;;19.26;100.00
5574;BME280;2563;52.242;7.956;2023-05-20T08:45:18;101453.00;;;19.03;100.00
5574;BME280;2563;52.242;7.956;2023-05-20T08:47:44;101448.44;;;19.27;100.00
5574;BME280;2563;52.242;7.956;2023-05-20T08:50:11;101446.16;;;19.00;100.00
5574;BME280;2563;52.242;7.956;2023-05-20T08:52:42;101434.69;;;19.42;100.00
5574;BME280;2563;52.242;7.956;2023-05-20T08:55:12;101427.31;;;19.69;100.00
5574;BME280;2563;52.242;7.956;2023-05-20T08:57:39;101402.47;;;19.42;100.00
5574;BME280;2563;52.242;7.956;2023-05-20T09:00:07;101394.13;;;19.52;100.00
5574;BME280;2563;52.242;7.956;2023-05-20T09:02:40;101377.97;;;19.08;100.00
5574;BME280;2563;52.242;7.956;2023-05-20T09:05:06;101340.09;;;19.18;100.00
5574;BME280;2563;52.242;7.956;2023-05-20T09:07:31;101332.53;;;19.12;100.00
5574;BME280;2563;52.242;7.956;2023-05-20T09:09:57;101315.81;;;19.16;100.00
5574;BME280;2563;52.242;7.956;2023-05-20T09:12:22;101291.53;;;19.50;100.00
5574;BME280;2563;52.242;7.956;2023-05-20T09:14:48;101285.22;;;19.89;100.00
5574;BME280;2563;52.242;7.956;2023-05-20T09:17:14;101310.97;;;19.97;100.00
5574;BME280;2563;52.242;7.956;2023-05-20T09:19:40;101330.28;;;19.77;100.00
5574;BME280;2563;52.242;7.956;2023-05-20T09:22:05;101320.34;;;20.34;100.00
5574;BME280;2563;52.242;7.956;2023-05-20T09:24:31;101281.97;;;21.46;100.00
5574;BME280;2563;52.242;7.956;2023-05-20T09:26:57;101336.44;;;20.27;100.00
5574;BME280;2563;52.242;7.956;2023-05-20T09:29:23;101345.75;;;20.66;100.00
5574;BME280;2563;52.242;7.956;2023-05-20T09:31:49;101357.00;;;21.31;100.00
5574;BME280;2563;52.242;7.956;2023-05-20T09:34:15;101461.25;;;21.40;100.00
5574;BME280;2563;52.242;7.956;2023-05-20T09:36:42;101489.75;;;21.13;100.00
5574;BME280;2563;52.242;7.956;2023-05-20T09:39:13;101515.00;;;21.48;100.00
5574;BME280;2563;52.242;7.956;2023-05-20T09:41:48;101497.50;;;20.83;100.00
5574;BME280;2563;52.242;7.956;2023-05-20T09:44:17;101505.13;;;21.03;100.00
5574;BME280;2563;52.242;7.956;2023-05-20T09:46:44;101495.47;;;20.88;100.00
5574;BME280;2563;52.242;7.956;2023-05-20T09:49:11;101496.31;;;20.89;100.00
5574;BME280;2563;52.242;7.956;2023-05-20T09:51:37;101496.25;;;20.90;100.00
5574;BME280;2563;52.242;7.956;2023-05-20T09:54:04;101499.34;;;21.30;100.00
5574;BME280;2563;52.242;7.956;2023-05-20T09:56:33;101504.34;;;21.66;100.00
5574;BME280;2563;52.242;7.956;2023-05-20T09:59:00;101518.59;;;22.08;100.00
5574;BME280;2563;52.242;7.956;2023-05-20T10:01:26;101493.72;;;21.54;100.00
5574;BME280;2563;52.242;7.956;2023-05-20T10:03:52;101510.25;;;22.02;100.00
5574;BME280;2563;52.242;7.956;2023-05-20T10:06:37;101499.63;;;22.19;99.93
5574;BME280;2563;52.242;7.956;2023-05-20T10:09:31;101498.34;;;21.80;97.25
5574;BME280;2563;52.242;7.956;2023-05-20T10:12:26;101513.56;;;22.80;97.46
5574;BME280;2563;52.242;7.956;2023-05-20T10:20:00;101504.94;;;22.92;96.24
5574;BME280;2563;52.242;7.956;2023-05-20T10:22:27;101489.06;;;22.51;92.05
5574;BME280;2563;52.242;7.956;2023-05-20T10:25:03;101496.59;;;22.27;90.86
5574;BME280;2563;52.242;7.956;2023-05-20T10:27:44;101492.53;;;22.21;90.85
5574;BME280;2563;52.242;7.956;2023-05-20T10:30:22;101482.19;;;22.34;91.73
5574;BME280;2563;52.242;7.956;2023-05-20T10:33:02;101479.13;;;22.42;90.76
5574;BME280;2563;52.242;7.956;2023-05-20T10:35:29;101494.66;;;23.04;91.94
5574;BME280;2563;52.242;7.956;2023-05-20T10:38:11;101469.38;;;21.98;90.35
5574;BME280;2563;52.242;7.956;2023-05-20T10:40:37;101473.59;;;22.16;91.79
5574;BME280;2563;52.242;7.956;2023-05-20T10:43:13;101468.94;;;21.59;93.23
5574;BME280;2563;52.242;7.956;2023-05-20T10:45:48;101469.75;;;21.92;94.62
5574;BME280;2563;52.242;7.956;2023-05-20T10:48:29;101421.72;;;20.80;94.78
5574;BME280;2563;52.242;7.956;2023-05-20T10:50:59;101463.59;;;20.97;97.55
5574;BME280;2563;52.242;7.956;2023-05-20T10:53:28;101444.66;;;21.08;98.09
5574;BME280;2563;52.242;7.956;2023-05-20T10:55:55;101447.19;;;21.25;97.17
5574;BME280;2563;52.242;7.956;2023-05-20T10:58:21;101430.53;;;20.79;97.83
5574;BME280;2563;52.242;7.956;2023-05-20T11:00:48;101423.03;;;20.21;98.97
5574;BME280;2563;52.242;7.956;2023-05-20T11:03:15;101441.16;;;20.76;100.00
5574;BME280;2563;52.242;7.956;2023-05-20T11:05:43;101424.75;;;20.22;100.00
5574;BME280;2563;52.242;7.956;2023-05-20T11:08:09;101460.72;;;22.12;100.00
5574;BME280;2563;52.242;7.956;2023-05-20T11:10:34;101460.31;;;22.78;98.70
5574;BME280;2563;52.242;7.956;2023-05-20T11:13:01;101448.00;;;22.93;94.57
5574;BME280;2563;52.242;7.956;2023-05-20T11:15:28;101451.03;;;23.16;93.72
5574;BME280;2563;52.242;7.956;2023-05-20T11:17:55;101460.31;;;23.21;90.52
5574;BME280;2563;52.242;7.956;2023-05-20T11:20:22;101417.59;;;22.17;90.75
5574;BME280;2563;52.242;7.956;2023-05-20T11:22:52;101406.66;;;21.01;91.31
5574;BME280;2563;52.242;7.956;2023-05-20T11:25:18;101387.97;;;20.25;94.77
5574;BME280;2563;52.242;7.956;2023-05-20T11:27:45;101391.91;;;20.49;97.29
5574;BME280;2563;52.242;7.956;2023-05-20T11:30:14;101412.03;;;21.77;100.00
5574;BME280;2563;52.242;7.956;2023-05-20T11:33:00;101429.28;;;22.56;96.38
5574;BME280;2563;52.242;7.956;2023-05-20T11:35:27;101418.19;;;22.22;95.25
5574;BME280;2563;52.242;7.956;2023-05-20T11:38:04;101425.47;;;22.17;95.39
5574;BME280;2563;52.242;7.956;2023-05-20T11:40:31;101438.47;;;22.92;94.29
5574;BME280;2563;52.242;7.956;2023-05-20T11:42:58;101425.22;;;22.93;92.53
5574;BME280;2563;52.242;7.956;2023-05-20T11:45:25;101429.72;;;23.20;91.08
5574;BME280;2563;52.242;7.956;2023-05-20T11:48:04;101422.16;;;23.16;91.91
5574;BME280;2563;52.242;7.956;2023-05-20T11:50:35;101422.88;;;22.75;90.30
5574;BME280;2563;52.242;7.956;2023-05-20T11:53:04;101392.63;;;21.18;90.55
5574;BME280;2563;52.242;7.956;2023-05-20T11:55:31;101401.25;;;21.20;94.16
5574;BME280;2563;52.242;7.956;2023-05-20T11:57:58;101380.34;;;20.71;94.55
5574;BME280;2563;52.242;7.956;2023-05-20T12:00:26;101383.59;;;20.08;98.27
5574;BME280;2563;52.242;7.956;2023-05-20T12:02:52;101388.22;;;20.03;100.00
5574;BME280;2563;52.242;7.956;2023-05-20T12:05:17;101391.81;;;20.17;100.00
5574;BME280;2563;52.242;7.956;2023-05-20T12:07:43;101379.22;;;19.91;100.00
5574;BME280;2563;52.242;7.956;2023-05-20T12:10:09;101381.38;;;19.83;100.00
5574;BME280;2563;52.242;7.956;2023-05-20T12:12:35;101370.47;;;19.55;100.00
5574;BME280;2563;52.242;7.956;2023-05-20T12:15:06;101373.44;;;19.30;100.00
5574;BME280;2563;52.242;7.956;2023-05-20T12:17:44;101374.25;;;19.67;100.00
5574;BME280;2563;52.242;7.956;2023-05-20T12:20:11;101365.34;;;19.54;100.00
5574;BME280;2563;52.242;7.956;2023-05-20T12:22:37;101373.56;;;19.27;100.00
5574;BME280;2563;52.242;7.956;2023-05-20T12:25:02;101377.53;;;19.17;100.00
5574;BME280;2563;52.242;7.956;2023-05-20T12:27:28;101352.47;;;18.56;100.00
5574;BME280;2563;52.242;7.956;2023-05-20T12:29:54;101349.97;;;18.53;100.00
5574;BME280;2563;52.242;7.956;2023-05-20T12:32:20;101367.38;;;18.73;100.00
5574;BME280;2563;52.242;7.956;2023-05-20T12:34:45;101365.00;;;18.87;100.00
5574;BME280;2563;52.242;7.956;2023-05-20T12:37:10;101363.09;;;19.10;100.00
5574;BME280;2563;52.242;7.956;2023-05-20T12:39:37;101369.84;;;19.14;100.00
5574;BME280;2563;52.242;7.956;2023-05-20T12:42:03;101372.63;;;19.11;100.00
5574;BME280;2563;52.242;7.956;2023-05-20T12:44:28;101361.81;;;18.81;100.00
5574;BME280;2563;52.242;7.956;2023-05-20T12:46:54;101357.09;;;18.89;100.00
5574;BME280;2563;52.242;7.956;2023-05-20T12:49:19;101347.09;;;18.80;100.00
5574;BME280;2563;52.242;7.956;2023-05-20T12:51:45;101358.66;;;18.93;100.00
5574;BME280;2563;52.242;7.956;2023-05-20T12:54:10;101357.66;;;18.77;100.00
5574;BME280;2563;52.242;7.956;2023-05-20T12:56:35;101355.19;;;19.11;100.00
5574;BME280;2563;52.242;7.956;2023-05-20T12:59:01;101359.66;;;19.63;100.00
5574;BME280;2563;52.242;7.956;2023-05-20T13:01:26;101361.41;;;19.63;100.00
5574;BME280;2563;52.242;7.956;2023-05-20T13:03:51;101365.06;;;20.12;100.00
5574;BME280;2563;52.242;7.956;2023-05-20T13:06:18;101372.13;;;20.28;100.00